Aeroporto :
LOGIN :

Iscrizione | Disclaimer

   EN    FR    IT 

 










Sommario :    VFR   VFR Marginale   IFR   IFR Intensivo   IFR Molto Intensivo
Visibilità : 
Base nubi : 
>= 8 km
>= 3000ft
5 / 8 km
1000 / 3000 ft
1500m / 5 km
500 / 1000 ft
800 / 1500m
200 / 500 ft
< 800m
< 200 ft
Simboli :   Temporali  Nebbia  Neve Forte  Precipitazioni Forti  Vento > 20 kt
SIGMETs :   Varie  Temporali  Ghiacco  Turbolenza  Onda orograficha  Ceneri Vulcaniche






- Altitudine del aeroporto : 405 ft
- Codice IATA : JMK


LGMK - Mikonos

ULTIMO METAR :
  • 291350Z 35022G32KT 9999 SCT010 SCT025 12/M00 Q1017

METARs OBSOLETI :
  • 291320Z 35025G35KT 9999 SCT010 SCT025 12/02 Q1016
  • 291250Z 34022KT 9999 SCT010 SCT025 11/02 Q1016
  • 291220Z 33020G30KT 9999 SCT010 SCT025 11/02 Q1016
  • 291150Z 35022G33KT 9999 SCT010 SCT025 11/02 Q1016
  • 291120Z 34022G34KT 9999 SCT010 SCT025 11/03 Q1016
  • 291050Z 35022KT 9999 -DZ SCT010 BKN025 11/03 Q1016

TAF TAF LGMK
Valido dal 29 a 12 ore il 29 a 21 ore UTC


291100Z 2912/2921 35025G35KT 9999 SCT015
BECMG 2916/2918 35020G30KT



MetMap, La meteo Aeronautica in un colpo d'occhio ! - Copyright ORBIFLY Dicembre 2007 - Disclaimer

ORBIFLY MET'MAP TEAM :

Programmazione e sviluppo : Alexandra Zaïnal
Concezione : Baudouin d'Aumeries
Aiuto per la programmazione : Marc-Olivier Méhu
Supporto tecnico e logistico : Manuel Goepfert
Aiuto per la traduzione : Arnaldo La Scala

Contatto : metmap@orbifly.com




FONTI E CREDITI :

   NOAA